Tiempo atmosférico en la estación meteorológica de Valderredible, Polientes, Cantabria (720 m.)



Fecha
DESCASC
Temp. máxima en grados centígrados (hora)
DESCASC
Temp. mínima en grados centígrados (hora)
DESCASC
Temp. media en grados centígrados
DESCASC
Racha de viento máxima en m/sg (hora)
DESCASC
Velocidad máxima media en intervalos de 10 minutos(hora)
DESCASC
Precipitaciones diarias en mm
DESCASC
Precipitaciones de 00:00 a 06:00 en mm
DESCASC
Precipitaciones de 06:00 a 12:00 en mm
DESCASC
Precipitaciones de 12:00 a 18:00 en mm
DESCASC
Precipitaciones de 18:00 a 24:00 en mm
DESCASC
10-07-2020 21 (17:30) 13.3 (23:59) 17.2 8.61 (16:50) 2.78 (12:30) 0 0 0 0 0
09-07-2020 29.8 (14:40) 12.1 (06:50) 20.9 8.89 (18:20) 3.61 (18:10) 0 0 0 0 0
08-07-2020 29.9 (17:00) 10.1 (06:30) 20 7.78 (22:10) 2.78 (22:20) 0 0 0 0 0
07-07-2020 28.8 (15:50) 9.7 (07:00) 19.2 6.39 (13:20) 2.5 (13:20) 0 0 0 0 0
06-07-2020 24.2 (15:00) 12.4 (00:00) 18.3 8.61 (14:10) 3.33 (14:40) 0 0 0 0 0
05-07-2020 30.8 (15:10) 7.5 (00:00) 19.1 8.33 (18:30) 3.33 (17:40) 0 0 0 0 0
04-07-2020 27.5 (15:30) 6 (00:00) 16.8 7.5 (18:00) 3.06 (17:50) 0 0 0 0 0
03-07-2020 22.6 (16:20) 10.1 (02:40) 16.4 7.22 (16:00) 2.5 (00:50) 0 0 0 0 0
02-07-2020 20.7 (14:30) 12.2 (00:00) 16.5 9.17 (20:00) 3.61 (20:10) 0 0 0 0 0
01-07-2020 26 (13:50) 12.4 (00:00) 19.2 10 (17:20) 3.33 (17:20) 0 0 0 0 0
30-06-2020 32.2 (16:00) 8.7 (00:00) 20.5 7.22 (18:20) 3.33 (18:50) 0 0 0 0 0
29-06-2020 24.2 (17:50) 13.2 (00:00) 18.7 5.83 (18:30) 2.22 (18:30) 0 0 0 0 0
28-06-2020 28.3 (15:10) 15.2 (00:00) 21.7 8.61 (19:40) 3.33 (19:30) 0 0 0 0 0
27-06-2020 27.1 (17:20) 7.1 (00:00) 17.1 8.89 (12:30) 4.17 (12:10) 0 0 0 0 0
26-06-2020 25.2 (15:30) 11.6 (00:00) 18.4 8.61 (18:30) 3.89 (18:30) 0 0 0 0 0
25-06-2020 24.5 (17:30) 13.8 (00:00) 19.2 9.72 (08:10) 2.5 (14:00) 3.5 0 0.4 1.9 1.2
24-06-2020 33.7 (15:00) 11.3 (00:00) 22.5 16.11 (16:40) 7.78 (16:40) 0.6 0 0 0.6 0
23-06-2020 34.5 (17:20) 9.2 (00:00) 21.8 7.22 (18:10) 2.5 (19:10) 0 0 0 0 0
22-06-2020 30 (17:20) 12.7 (00:00) 21.3 6.67 (19:20) 2.22 (18:10) 0 0 0 0 0
21-06-2020 26.7 (15:30) 9 (00:00) 17.9 9.44 (17:00) 3.89 (16:50) 0 0 0 0 0
20-06-2020 28.8 (17:10) 5.8 (00:00) 17.3 8.61 (20:20) 3.33 (20:10) 0 0 0 0 0
19-06-2020 24.7 (15:30) 7.4 (00:00) 16.1 8.89 (18:30) 3.33 (17:50) 0 0 0 0 0
18-06-2020 20.4 (14:40) 9.6 (00:00) 15 8.33 (17:20) 2.78 (16:00) 1.1 1.1 0 0 0
17-06-2020 19.7 (16:10) 9.2 (00:00) 14.5 7.78 (19:30) 3.06 (19:30) 0.3 0 0 0.3 0
16-06-2020 21.2 (14:50) 8.5 (00:00) 14.9 9.44 (14:50) 4.72 (13:50) 3 0 0 3 0
15-06-2020 22.3 (17:00) 8.7 (00:00) 15.5 7.78 (18:00) 3.33 (18:00) 0 0 0 0 0
14-06-2020 20 (17:20) 6.8 (00:00) 13.4 8.61 (16:20) 4.44 (16:50) 0 0 0 0 0
13-06-2020 19.6 (16:00) 9.6 (00:00) 14.6 10.56 (15:20) 6.11 (15:10) 0 0 0 0 0
12-06-2020 17.3 (13:40) 5.2 (00:00) 11.2 11.94 (11:30) 6.39 (11:10) 0.6 0 0 0.6 0

Gráficas

Temp. máximas Temp. mínimas Temp. medias Precipitaciones Rachas de viento máximas Velocidades máximas media en intervalos de 10 minutos

Datos horarios

Fecha y hora oficial Temperatura (ºC) Velocidad del viento (km/h) Dirección del viento Racha (km/h) Dirección de racha Precipitación (mm) Presión (hPa) Tendencia (hPa) Humedad (%)
2020-07-11 23:00:00 15.3 3 Nordeste 10 Norte 0 -- -- 82
2020-07-11 22:00:00 16.7 0 Calma 15 Este 0 -- -- 76
2020-07-11 21:00:00 18.4 3 Nordeste 23 Nordeste 0 -- -- 69
2020-07-11 20:00:00 20.6 7 Nordeste 22 Este 0 -- -- 58
2020-07-11 19:00:00 22.2 4 Norte 23 Nordeste 0 -- -- 50
2020-07-11 18:00:00 23.7 9 Nordeste 27 Este 0 -- -- 42
2020-07-11 17:00:00 23.7 10 Nordeste 24 Nordeste 0 -- -- 42
2020-07-11 16:00:00 23.5 9 Este 32 Sudeste 0 -- -- 43
2020-07-11 15:00:00 23.2 10 Este 26 Este 0 -- -- 44
2020-07-11 14:00:00 22.4 8 Nordeste 25 Nordeste 0 -- -- 44
2020-07-11 13:00:00 21.5 9 Este 24 Este 0 -- -- 47
2020-07-11 12:00:00 19 6 Nordeste 22 Nordeste 0 -- -- 58
2020-07-11 11:00:00 16.4 8 Nordeste 21 Nordeste 0 -- -- 65
2020-07-11 10:00:00 16.1 7 Nordeste 19 Nordeste 0 -- -- 65
2020-07-11 09:00:00 14.3 3 Nordeste 13 Nordeste 0 -- -- 76
2020-07-11 08:00:00 12.2 0 Calma 5 Sudeste 0 -- -- 88
2020-07-11 07:00:00 11.5 0 Calma 8 Este 0 -- -- 88
2020-07-11 06:00:00 12.3 3 Este 17 Este 0 -- -- 84
2020-07-11 05:00:00 13.1 6 Nordeste 16 Nordeste 0 -- -- 80
2020-07-11 04:00:00 13.4 6 Nordeste 17 Nordeste 0 -- -- 80
2020-07-11 03:00:00 13.7 4 Nordeste 14 Nordeste 0 -- -- 86
2020-07-11 02:00:00 13.7 4 Nordeste 14 Nordeste 0 -- -- 87
2020-07-11 01:00:00 13.5 4 Nordeste 14 Nordeste 0 -- -- 88
2020-07-11 00:00:00 13.4 3 Norte 18 Nordeste 0 -- -- 89
2020-07-10 23:00:00 13.9 5 Nordeste 25 Nordeste 0 -- -- 88
2020-07-10 22:00:00 15 5 Nordeste 16 Nordeste 0 -- -- 80
2020-07-10 21:00:00 16.4 4 Nordeste 23 Nordeste 0 -- -- 72
2020-07-10 20:00:00 17.5 5 Nordeste 21 Nordeste 0 -- -- 66
2020-07-10 19:00:00 17.1 4 Norte 21 Nordeste 0 -- -- 71
2020-07-10 18:00:00 19.3 5 Nordeste 30 Nordeste 0 -- -- 59
2020-07-10 17:00:00 19 7 Nordeste 31 Nordeste 0 -- -- 61
2020-07-10 16:00:00 20.1 6 Nordeste 23 Este 0 -- -- 59
2020-07-10 15:00:00 20.1 3 Nordeste 17 Nordeste 0 -- -- 60
2020-07-10 14:00:00 19.3 6 Nordeste 22 Nordeste 0 -- -- 63
2020-07-10 13:00:00 19.1 5 Nordeste 22 Nordeste 0 -- -- 67
2020-07-10 12:00:00 17.9 4 Nordeste 21 Nordeste 0 -- -- 73
2020-07-10 11:00:00 17.9 6 Nordeste 20 Nordeste 0 -- -- 74
2020-07-10 10:00:00 16.9 6 Nordeste 16 Nordeste 0 -- -- 78
2020-07-10 09:00:00 16.5 5 Nordeste 14 Nordeste 0 -- -- 81
2020-07-10 08:00:00 16.4 2 Nordeste 12 Este 0 -- -- 82
2020-07-10 07:00:00 16.1 2 Nordeste 10 Nordeste 0 -- -- 84
2020-07-10 06:00:00 15.9 0 Calma 5 Nordeste 0 -- -- 88
2020-07-10 05:00:00 15.5 0 Calma 3 Sudoeste 0 -- -- 91
2020-07-10 04:00:00 15.8 0 Calma 3 Este 0 -- -- 88
2020-07-10 03:00:00 16.6 0 Calma 6 Nordeste 0 -- -- 86
2020-07-10 02:00:00 16.8 0 Calma 9 Nordeste 0 -- -- 86
2020-07-10 01:00:00 16.7 0 Calma 10 Este 0 -- -- 87
2020-07-10 00:00:00 16.6 4 Nordeste 19 Nordeste 0 -- -- 87
2020-07-09 23:00:00 16.5 5 Nordeste 17 Nordeste 0 -- -- 87
2020-07-09 22:00:00 17.9 7 Nordeste 17 Este 0 -- -- 84
2020-07-09 21:00:00 20.1 6 Nordeste 13 Este 0 -- -- 72
2020-07-09 20:00:00 20.7 6 Nordeste 26 Este 0 -- -- 70
2020-07-09 19:00:00 23.1 9 Nordeste 32 Nordeste 0 -- -- 59
2020-07-09 18:00:00 25.9 10 Nordeste 31 Nordeste 0 -- -- 49
2020-07-09 17:00:00 27.8 8 Nordeste 27 Nordeste 0 -- -- 44
2020-07-09 16:00:00 28.9 11 Nordeste 29 Nordeste 0 -- -- 40
2020-07-09 15:00:00 29.1 6 Nordeste 26 Nordeste 0 -- -- 38
2020-07-09 14:00:00 28.6 6 Nordeste 21 Nordeste 0 -- -- 38
2020-07-09 13:00:00 27.8 5 Este 19 Este 0 -- -- 40
2020-07-09 12:00:00 25.7 6 Este 18 Nordeste 0 -- -- 45
2020-07-09 11:00:00 22.7 3 Este 11 Nordeste 0 -- -- 56
2020-07-09 10:00:00 18.3 2 Sudoeste 8 Sudoeste 0 -- -- 75
2020-07-09 09:00:00 14.5 2 Sudoeste 5 Sudoeste 0 -- -- 91
2020-07-09 08:00:00 12.7 0 Calma 4 Sudoeste 0 -- -- 93
2020-07-09 07:00:00 12.3 0 Calma 6 Noroeste 0 -- -- 92
2020-07-09 06:00:00 13.1 0 Calma 3 Sudoeste 0 -- -- 92
2020-07-09 05:00:00 13.9 0 Calma 4 Norte 0 -- -- 89
2020-07-09 04:00:00 14.5 0 Calma 6 Sudoeste 0 -- -- 88
2020-07-09 03:00:00 15.9 4 Sudoeste 16 Nordeste 0 -- -- 83
2020-07-09 02:00:00 16.5 0 Calma 10 Nordeste 0 -- -- 72
2020-07-09 01:00:00 18.2 0 Calma 22 Sudoeste 0 -- -- 66
2020-07-09 00:00:00 20.5 6 Oeste 17 Oeste 0 -- -- 60
2020-07-08 23:00:00 20.9 0 Calma 28 Sudoeste 0 -- -- 54
2020-07-08 22:00:00 20.1 2 Sudeste 15 Nordeste 0 -- -- 69
2020-07-08 21:00:00 20.7 5 Nordeste 22 Nordeste 0 -- -- 70
2020-07-08 20:00:00 22 7 Nordeste 19 Nordeste 0 -- -- 64
2020-07-08 19:00:00 25.4 3 Este 15 Norte 0 -- -- 49
2020-07-08 18:00:00 27.7 4 Nordeste 24 Nordeste 0 -- -- 42
2020-07-08 17:00:00 29.2 4 Nordeste 18 Nordeste 0 -- -- 37
2020-07-08 16:00:00 28.3 5 Nordeste 19 Nordeste 0 -- -- 37
2020-07-08 15:00:00 26.3 8 Nordeste 17 Norte 0 -- -- 35
2020-07-08 14:00:00 26.2 5 Nordeste 18 Nordeste 0 -- -- 35
2020-07-08 13:00:00 24.3 2 Noroeste 19 Nordeste 0 -- -- 37
2020-07-08 12:00:00 22.4 3 Nordeste 10 Sudeste 0 -- -- 47
2020-07-08 11:00:00 18.8 3 Sur 10 Sudoeste 0 -- -- 60
2020-07-08 10:00:00 14.1 2 Sur 6 Sur 0 -- -- 81
2020-07-08 09:00:00 12 0 Calma -- -- 0 -- -- 94
2020-07-08 08:00:00 11.4 0 Calma -- -- 0 -- -- 94
2020-07-08 07:00:00 10.4 0 Calma -- -- 0 -- -- 94
2020-07-08 06:00:00 10.4 0 Calma -- -- 0 -- -- 93
2020-07-08 05:00:00 10.7 0 Calma -- -- 0 -- -- 93
2020-07-08 04:00:00 10.8 0 Calma -- -- 0 -- -- 92
2020-07-08 03:00:00 11.9 0 Calma -- -- 0 -- -- 93
2020-07-08 02:00:00 12.6 0 Calma -- -- 0 -- -- 92
2020-07-08 01:00:00 13.9 0 Calma -- -- 0 -- -- 91
2020-07-08 00:00:00 15.7 0 Calma 10 Sudeste 0 -- -- 88
2020-07-07 23:00:00 17 3 Este 13 Nordeste 0 -- -- 83
2020-07-07 22:00:00 18.7 4 Este 13 Este 0 -- -- 73
2020-07-07 21:00:00 21.5 0 Calma 22 Nordeste 0 -- -- 54
2020-07-07 20:00:00 24 6 Nordeste 18 Nordeste 0 -- -- 43
2020-07-07 19:00:00 25.2 6 Nordeste 22 Nordeste 0 -- -- 37
2020-07-07 18:00:00 27.1 8 Nordeste 20 Nordeste 0 -- -- 28
2020-07-07 17:00:00 28.5 4 Nordeste 19 Nordeste 0 -- -- 26
2020-07-07 16:00:00 28.2 4 Nordeste 20 Nordeste 0 -- -- 23
2020-07-07 15:00:00 27.8 6 Nordeste 18 Este 0 -- -- 21
2020-07-07 14:00:00 26.6 6 Nordeste 23 Nordeste 0 -- -- 21
2020-07-07 13:00:00 24 6 Nordeste 16 Nordeste 0 -- -- 31
2020-07-07 12:00:00 21 4 Este 15 Este 0 -- -- 40
2020-07-07 11:00:00 17.6 3 Este 12 Este 0 -- -- 50
2020-07-07 10:00:00 14.9 3 Este 10 Nordeste 0 -- -- 65
2020-07-07 09:00:00 12.5 3 Nordeste 14 Norte 0 -- -- 74
2020-07-07 08:00:00 10.3 4 Nordeste 12 Nordeste 0 -- -- 86
2020-07-07 07:00:00 9.8 0 Calma 4 Nordeste 0 -- -- 88
2020-07-07 06:00:00 10.1 0 Calma 13 Nordeste 0 -- -- 87
2020-07-07 05:00:00 11.1 3 Nordeste 14 Nordeste 0 -- -- 84
2020-07-07 04:00:00 11.5 0 Calma 7 Este 0 -- -- 85
2020-07-07 03:00:00 12.1 2 Nordeste 10 Nordeste 0 -- -- 84
2020-07-07 02:00:00 12.5 4 Nordeste 12 Nordeste 0 -- -- 85
2020-07-07 01:00:00 13 0 Calma 10 Nordeste 0 -- -- 84
2020-07-07 00:00:00 13.4 3 Nordeste 17 Norte 0 -- -- 84
2020-07-06 23:00:00 14.2 3 Nordeste 17 Norte 0 -- -- 79
2020-07-06 22:00:00 15 4 Nordeste 14 Nordeste 0 -- -- 77
2020-07-06 21:00:00 16.4 3 Nordeste 20 Nordeste 0 -- -- 71
2020-07-06 20:00:00 17.8 4 Norte 22 Nordeste 0 -- -- 64
2020-07-06 19:00:00 20.1 4 Nordeste 25 Nordeste 0 -- -- 55
2020-07-06 18:00:00 20.3 8 Nordeste 26 Nordeste 0 -- -- 52
2020-07-06 17:00:00 22.5 3 Norte 28 Nordeste 0 -- -- 47
2020-07-06 16:00:00 23.2 10 Nordeste 28 Nordeste 0 -- -- 46
2020-07-06 15:00:00 23 6 Nordeste 31 Nordeste 0 -- -- 45
2020-07-06 14:00:00 23.1 10 Nordeste 27 Nordeste 0 -- -- 47
2020-07-06 13:00:00 22.7 8 Nordeste 27 Nordeste 0 -- -- 48
2020-07-06 12:00:00 21.2 5 Nordeste 24 Nordeste 0 -- -- 57
2020-07-06 11:00:00 18.9 6 Nordeste 21 Nordeste 0 -- -- 66
2020-07-06 10:00:00 18 6 Nordeste 18 Nordeste 0 -- -- 74
2020-07-06 09:00:00 17.1 4 Nordeste 18 Nordeste 0 -- -- 80
2020-07-06 08:00:00 15.6 2 Nordeste 13 Nordeste 0 -- -- 87
2020-07-06 07:00:00 14.8 2 Nordeste 13 Nordeste 0 -- -- 90
2020-07-06 06:00:00 14.2 2 Nordeste 10 Este 0 -- -- 92
2020-07-06 05:00:00 13.3 3 Este 9 Este 0 -- -- 93
2020-07-06 04:00:00 13 0 Calma 6 Este 0 -- -- 92
2020-07-06 03:00:00 13.8 2 Este 8 Este 0 -- -- 88
2020-07-06 02:00:00 14.7 4 Nordeste 13 Nordeste 0 -- -- 87
2020-07-06 01:00:00 16.1 4 Nordeste 18 Nordeste 0 -- -- 86
2020-07-06 00:00:00 16.4 6 Nordeste 21 Nordeste 0 -- -- 87
2020-07-05 23:00:00 17 5 Este 17 Este 0 -- -- 83
2020-07-05 22:00:00 18.8 5 Este 21 Nordeste 0 -- -- 74
2020-07-05 21:00:00 20.9 9 Nordeste 22 Nordeste 0 -- -- 58
2020-07-05 20:00:00 23.5 7 Nordeste 23 Nordeste 0 -- -- 47
2020-07-05 19:00:00 25.6 8 Nordeste 30 Nordeste 0 -- -- 44
2020-07-05 18:00:00 28.4 8 Nordeste 28 Nordeste 0 -- -- 41
2020-07-05 17:00:00 29.1 8 Nordeste 24 Nordeste 0 -- -- 35
2020-07-05 16:00:00 30.1 5 Nordeste 23 Nordeste 0 -- -- 34
2020-07-05 15:00:00 30.4 3 Nordeste 14 Nordeste 0 -- -- 33
2020-07-05 14:00:00 28.7 4 Nordeste 14 Nordeste 0 -- -- 33
2020-07-05 13:00:00 27.7 3 Norte 12 Nordeste 0 -- -- 35
2020-07-05 12:00:00 23.7 0 Calma 8 Este 0 -- -- 43
2020-07-05 11:00:00 20.2 0 Calma 6 Sudoeste 0 -- -- 44
2020-07-05 10:00:00 15.4 2 Sudoeste 5 Sudoeste 0 -- -- 60
2020-07-05 09:00:00 10.8 0 Calma -- -- 0 -- -- 85
2020-07-05 08:00:00 8.2 0 Calma -- -- 0 -- -- 92
2020-07-05 07:00:00 7.6 0 Calma -- -- 0 -- -- 92
2020-07-05 06:00:00 8 0 Calma -- -- 0 -- -- 91
2020-07-05 05:00:00 8.3 0 Calma -- -- 0 -- -- 89
2020-07-05 04:00:00 9.1 0 Calma -- -- 0 -- -- 85
2020-07-05 03:00:00 10.1 0 Calma -- -- 0 -- -- 81
2020-07-05 02:00:00 11.1 0 Calma -- -- 0 -- -- 75
2020-07-05 01:00:00 12.3 0 Calma 3 Norte 0 -- -- 67
2020-07-05 00:00:00 14.4 0 Calma 8 Nordeste 0 -- -- 61
2020-07-04 23:00:00 16.7 3 Este 18 Sudeste 0 -- -- 46
2020-07-04 22:00:00 17.9 2 Nordeste 13 Nordeste 0 -- -- 39
2020-07-04 21:00:00 20.1 5 Nordeste 19 Nordeste 0 -- -- 39
2020-07-04 20:00:00 22.6 6 Nordeste 24 Nordeste 0 -- -- 37
2020-07-04 19:00:00 24.7 6 Nordeste 24 Nordeste 0 -- -- 35
2020-07-04 18:00:00 25.4 9 Nordeste 27 Nordeste 0 -- -- 33
2020-07-04 17:00:00 26.9 4 Nordeste 19 Nordeste 0 -- -- 28
2020-07-04 16:00:00 27 5 Nordeste 21 Este 0 -- -- 27
2020-07-04 15:00:00 26.1 7 Nordeste 21 Nordeste 0 -- -- 25
2020-07-04 14:00:00 26.2 8 Nordeste 23 Este 0 -- -- 24
2020-07-04 13:00:00 23.8 6 Nordeste 13 Nordeste 0 -- -- 37
2020-07-04 12:00:00 20.1 3 Este 9 Este 0 -- -- 41
2020-07-04 11:00:00 14.1 0 Calma 9 Sudoeste 0 -- -- 69
2020-07-04 10:00:00 10.9 3 Sur 8 Sudoeste 0 -- -- 92
2020-07-04 09:00:00 9.6 3 Sudoeste 7 Sur 0 -- -- 95
2020-07-04 08:00:00 8.7 0 Calma -- -- 0 -- -- 95
2020-07-04 07:00:00 7.9 0 Calma -- -- 0 -- -- 95
2020-07-04 06:00:00 6.9 0 Calma -- -- 0 -- -- 94
2020-07-04 05:00:00 6.4 0 Calma -- -- 0 -- -- 94
2020-07-04 04:00:00 7.5 0 Calma -- -- 0 -- -- 94
2020-07-04 03:00:00 8.4 0 Calma -- -- 0 -- -- 92
2020-07-04 02:00:00 10.4 0 Calma 4 Sudeste 0 -- -- 88
2020-07-04 01:00:00 12.2 2 Este 7 Este 0 -- -- 86
2020-07-04 00:00:00 11.5 0 Calma 4 Nordeste 0 -- -- 88
2020-07-03 23:00:00 12.6 0 Calma 7 Sudeste 0 -- -- 82
2020-07-03 22:00:00 13.9 5 Este 19 Este 0 -- -- 73
2020-07-03 21:00:00 15.6 6 Nordeste 19 Nordeste 0 -- -- 62
2020-07-03 20:00:00 19.1 7 Nordeste 21 Nordeste 0 -- -- 51
2020-07-03 19:00:00 20.9 6 Nordeste 22 Nordeste 0 -- -- 44
2020-07-03 18:00:00 22 5 Nordeste 19 Nordeste 0 -- -- 41
2020-07-03 17:00:00 21.7 4 Nordeste 19 Norte 0 -- -- 40
2020-07-03 16:00:00 22 5 Nordeste 26 Nordeste 0 -- -- 39
2020-07-03 15:00:00 20.8 7 Nordeste 23 Nordeste 0 -- -- 40
2020-07-03 14:00:00 21.3 2 Norte 22 Nordeste 0 -- -- 39
2020-07-03 13:00:00 20.2 5 Nordeste 21 Nordeste 0 -- -- 41
2020-07-03 12:00:00 18.4 4 Nordeste 21 Nordeste 0 -- -- 42
2020-07-03 11:00:00 17.2 4 Nordeste 19 Nordeste 0 -- -- 45
2020-07-03 10:00:00 15.2 3 Norte 24 Este 0 -- -- 48
2020-07-03 09:00:00 14.1 8 Nordeste 20 Nordeste 0 -- -- 66
2020-07-03 08:00:00 11.6 4 Nordeste 10 Nordeste 0 -- -- 83
2020-07-03 07:00:00 10.7 0 Calma 5 Nordeste 0 -- -- 87
2020-07-03 06:00:00 11 0 Calma 11 Nordeste 0 -- -- 85
2020-07-03 05:00:00 10.6 0 Calma 12 Nordeste 0 -- -- 84
2020-07-03 04:00:00 11.3 5 Nordeste 16 Nordeste 0 -- -- 82
2020-07-03 03:00:00 10.4 0 Calma 9 Nordeste 0 -- -- 87
2020-07-03 02:00:00 10.8 3 Nordeste 13 Nordeste 0 -- -- 84
2020-07-03 01:00:00 11.9 4 Nordeste 22 Nordeste 0 -- -- 81
2020-07-03 00:00:00 12.3 7 Nordeste 19 Nordeste 0 -- -- 81
2020-07-02 23:00:00 12.3 5 Nordeste 21 Nordeste 0 -- -- 79
2020-07-02 22:00:00 12.6 7 Nordeste 31 Nordeste 0 -- -- 79
2020-07-02 21:00:00 12.8 9 Nordeste 31 Nordeste 0 -- -- 75
2020-07-02 20:00:00 13.4 10 Nordeste 33 Nordeste 0 -- -- 70
2020-07-02 19:00:00 14.3 9 Nordeste 27 Nordeste 0 -- -- 70
2020-07-02 18:00:00 15.6 9 Nordeste 30 Nordeste 0 -- -- 63
2020-07-02 17:00:00 15.7 10 Nordeste 29 Nordeste 0 -- -- 61
2020-07-02 16:00:00 16.3 11 Nordeste 29 Nordeste 0 -- -- 57
2020-07-02 15:00:00 18.6 8 Nordeste 30 Nordeste 0 -- -- 52
2020-07-02 14:00:00 20 10 Nordeste 31 Nordeste 0 -- -- 53
2020-07-02 13:00:00 17.6 6 Nordeste 19 Nordeste 0 -- -- 61
2020-07-02 12:00:00 17.7 5 Nordeste 16 Este 0 -- -- 63
2020-07-02 11:00:00 15.8 4 Nordeste 13 Nordeste 0 -- -- 72
2020-07-02 10:00:00 14.7 4 Este 13 Nordeste 0 -- -- 78
2020-07-02 09:00:00 14.1 3 Nordeste 13 Este 0 -- -- 84
2020-07-02 08:00:00 13.4 5 Este 18 Nordeste 0 -- -- 89
2020-07-02 07:00:00 13.8 2 Este 10 Nordeste 0 -- -- 91
2020-07-02 06:00:00 14.2 4 Nordeste 14 Nordeste 0 -- -- 86
2020-07-02 05:00:00 14.3 5 Nordeste 14 Nordeste 0 -- -- 85
2020-07-02 04:00:00 14.6 4 Nordeste 13 Nordeste 0 -- -- 84
2020-07-02 03:00:00 14.8 4 Nordeste 14 Nordeste 0 -- -- 83
2020-07-02 02:00:00 14.9 4 Nordeste 15 Este 0 -- -- 83
2020-07-02 01:00:00 14.9 4 Nordeste 17 Nordeste 0 -- -- 82
2020-07-02 00:00:00 15.4 6 Nordeste 17 Este 0 -- -- 81
2020-07-01 23:00:00 15.6 4 Este 21 Este 0 -- -- 80
2020-07-01 22:00:00 15.8 5 Nordeste 25 Nordeste 0 -- -- 78
2020-07-01 21:00:00 16.5 8 Nordeste 23 Nordeste 0 -- -- 76
2020-07-01 20:00:00 17.4 7 Nordeste 28 Nordeste 0 -- -- 74
2020-07-01 19:00:00 19.3 9 Nordeste 35 Nordeste 0 -- -- 69
2020-07-01 18:00:00 18.8 6 Nordeste 36 Nordeste 0 -- -- 69
2020-07-01 17:00:00 22.6 9 Nordeste 26 Nordeste 0 -- -- 55
2020-07-01 16:00:00 25.5 8 Nordeste 25 Nordeste 0 -- -- 48
2020-07-01 15:00:00 25.6 4 Nordeste 23 Nordeste 0 -- -- 50
2020-07-01 14:00:00 25.6 6 Nordeste 19 Este 0 -- -- 47
2020-07-01 13:00:00 24.8 6 Nordeste 18 Este 0 -- -- 52
2020-07-01 12:00:00 22.4 4 Nordeste 16 Nordeste 0 -- -- 56
2020-07-01 11:00:00 21.6 0 Calma 11 Norte 0 -- -- 62
2020-07-01 10:00:00 18.6 0 Calma 10 Nordeste 0 -- -- 77
2020-07-01 09:00:00 15.9 0 Calma -- -- 0 -- -- 92
2020-07-01 08:00:00 14.3 0 Calma -- -- 0 -- -- 93
2020-07-01 07:00:00 13 0 Calma -- -- 0 -- -- 93
2020-07-01 06:00:00 12.4 0 Calma 0 Calma 0 -- -- 93
2020-07-01 05:00:00 13.1 0 Calma 4 Noroeste 0 -- -- 93
2020-07-01 04:00:00 13.6 0 Calma 3 Oeste 0 -- -- 92
2020-07-01 03:00:00 14.2 0 Calma 4 Noroeste 0 -- -- 92
2020-07-01 02:00:00 15 0 Calma 7 Noroeste 0 -- -- 91
2020-07-01 01:00:00 15.8 0 Calma 8 Nordeste 0 -- -- 88
2020-07-01 00:00:00 17.3 0 Calma 11 Nordeste 0 -- -- 85
2020-06-30 23:00:00 18.7 0 Calma 7 Este 0 -- -- 79
2020-06-30 22:00:00 19.8 0 Calma 14 Nordeste 0 -- -- 71
2020-06-30 21:00:00 21.3 6 Este 23 Nordeste 0 -- -- 62
2020-06-30 20:00:00 24.2 8 Nordeste 26 Nordeste 0 -- -- 51
2020-06-30 19:00:00 27.3 10 Nordeste 26 Nordeste 0 -- -- 44
2020-06-30 18:00:00 29.1 10 Nordeste 24 Nordeste 0 -- -- 38
2020-06-30 17:00:00 30.2 8 Nordeste 21 Nordeste 0 -- -- 34
2020-06-30 16:00:00 31 5 Nordeste 15 Nordeste 0 -- -- 32
2020-06-30 15:00:00 31 3 Nordeste 14 Nordeste 0 -- -- 32
2020-06-30 14:00:00 29.2 4 Nordeste 16 Nordeste 0 -- -- 33
2020-06-30 13:00:00 27.5 4 Este 14 Este 0 -- -- 35
2020-06-30 12:00:00 23.6 3 Nordeste 10 Nordeste 0 -- -- 42
2020-06-30 11:00:00 18.3 4 Sudoeste 9 Sudoeste 0 -- -- 48
2020-06-30 10:00:00 14.7 0 Calma 6 Este 0 -- -- 71
2020-06-30 09:00:00 11.1 0 Calma 0 Calma 0 -- -- 94
2020-06-30 08:00:00 9.6 0 Calma 0 Calma 0 -- -- 94
2020-06-30 07:00:00 9 0 Calma 0 Calma 0 -- -- 93
2020-06-30 06:00:00 9.3 0 Calma 0 Calma 0 -- -- 94
2020-06-30 05:00:00 9.4 0 Calma 0 Calma 0 -- -- 94
2020-06-30 04:00:00 9.6 0 Calma 0 Calma 0 -- -- 94
2020-06-30 03:00:00 10.5 0 Calma 5 Norte 0 -- -- 94
2020-06-30 02:00:00 11 0 Calma 4 Sudeste 0 -- -- 94
2020-06-30 01:00:00 11.8 0 Calma 4 Nordeste 0 -- -- 93
2020-06-30 00:00:00 13.2 0 Calma 7 Nordeste 0 -- -- 92
2020-06-29 23:00:00 14.4 3 Nordeste 12 Nordeste 0 -- -- 88
2020-06-29 22:00:00 16.2 5 Este 15 Este 0 -- -- 80
2020-06-29 21:00:00 18.7 5 Este 16 Nordeste 0 -- -- 68
2020-06-29 20:00:00 21.1 8 Nordeste 19 Este 0 -- -- 58
2020-06-29 19:00:00 22.8 6 Nordeste 21 Nordeste 0 -- -- 54
2020-06-29 18:00:00 23.4 7 Nordeste 18 Nordeste 0 -- -- 52
2020-06-29 17:00:00 22.6 4 Nordeste 18 Nordeste 0 -- -- 52
2020-06-29 16:00:00 22.6 8 Nordeste 18 Nordeste 0 -- -- 56
2020-06-29 15:00:00 22.3 4 Norte 16 Nordeste 0 -- -- 56
2020-06-29 14:00:00 21.7 5 Nordeste 16 Nordeste 0 -- -- 61
2020-06-29 13:00:00 19.5 2 Nordeste 17 Nordeste 0 -- -- 66
2020-06-29 12:00:00 18.3 4 Nordeste 13 Nordeste 0 -- -- 73
2020-06-29 11:00:00 17 3 Nordeste 13 Nordeste 0 -- -- 76
2020-06-29 10:00:00 16 6 Nordeste 16 Nordeste 0 -- -- 81
2020-06-29 09:00:00 15.7 4 Nordeste 14 Nordeste 0 -- -- 83
2020-06-29 08:00:00 15 4 Este 10 Nordeste 0 -- -- 87
2020-06-29 07:00:00 14.7 3 Este 10 Nordeste 0 -- -- 88
2020-06-29 06:00:00 15 3 Este 18 Este 0 -- -- 85
2020-06-29 05:00:00 15.4 5 Nordeste 15 Este 0 -- -- 83
2020-06-29 04:00:00 16 3 Nordeste 12 Este 0 -- -- 84
2020-06-29 03:00:00 16.3 2 Nordeste 14 Nordeste 0 -- -- 83
2020-06-29 02:00:00 16.3 3 Nordeste 15 Nordeste 0 -- -- 83
2020-06-29 01:00:00 16.6 4 Nordeste 19 Nordeste 0 -- -- 83
2020-06-29 00:00:00 16.4 7 Nordeste 20 Nordeste 0 -- -- 83
2020-06-28 23:00:00 16.7 7 Nordeste 22 Norte 0 -- -- 82
2020-06-28 22:00:00 17.1 7 Nordeste 22 Nordeste 0 -- -- 79
2020-06-28 21:00:00 17.9 7 Nordeste 25 Este 0 -- -- 74
2020-06-28 20:00:00 19.3 8 Nordeste 31 Nordeste 0 -- -- 65
2020-06-28 19:00:00 22.3 9 Nordeste 30 Nordeste 0 -- -- 52
2020-06-28 18:00:00 25.1 8 Nordeste 25 Nordeste 0 -- -- 47
2020-06-28 17:00:00 26.5 8 Nordeste 29 Norte 0 -- -- 43
2020-06-28 16:00:00 26.7 9 Nordeste 24 Nordeste 0 -- -- 43
2020-06-28 15:00:00 27.5 0 Calma 11 Oeste 0 -- -- 38
2020-06-28 14:00:00 25.7 4 Sudoeste 17 Sudoeste 0 -- -- 38
2020-06-28 13:00:00 24.9 3 Sudoeste 12 Sudoeste 0 -- -- 42
2020-06-28 12:00:00 23.6 0 Calma 10 Este 0 -- -- 46
2020-06-28 11:00:00 21.5 4 Este 9 Este 0 -- -- 54
2020-06-28 10:00:00 18.6 4 Sudoeste 9 Sudoeste 0 -- -- 64
2020-06-28 09:00:00 16.5 0 Calma 5 Nordeste 0 -- -- 80
2020-06-28 08:00:00 15.6 0 Calma 3 Sudoeste 0 -- -- 86
2020-06-28 07:00:00 15.2 2 Sudoeste 6 Sudoeste 0 -- -- 86
2020-06-28 06:00:00 15.5 0 Calma 5 Sudeste 0 -- -- 85
2020-06-28 05:00:00 15.5 0 Calma 7 Este 0 -- -- 85
2020-06-28 04:00:00 15.7 0 Calma 8 Nordeste 0 -- -- 86
2020-06-28 03:00:00 15.9 0 Calma 8 Norte 0 -- -- 87
2020-06-28 02:00:00 16 0 Calma 8 Nordeste 0 -- -- 87
2020-06-28 01:00:00 16.3 2 Este 11 Norte 0 -- -- 87
2020-06-28 00:00:00 16.5 3 Nordeste 11 Este 0 -- -- 86
2020-06-27 23:00:00 16.4 5 Nordeste 18 Nordeste 0 -- -- 85
2020-06-27 22:00:00 18 7 Nordeste 19 Nordeste 0 -- -- 74
2020-06-27 21:00:00 20 5 Nordeste 14 Este 0 -- -- 61
2020-06-27 20:00:00 22 4 Nordeste 20 Nordeste 0 -- -- 56
2020-06-27 19:00:00 23.6 7 Nordeste 25 Nordeste 0 -- -- 52
2020-06-27 18:00:00 22.5 8 Nordeste 24 Sudoeste 0 -- -- 47
2020-06-27 17:00:00 26.5 12 Sudoeste 26 Sudoeste 0 -- -- 37
2020-06-27 16:00:00 24.7 8 Sudoeste 22 Sudoeste 0 -- -- 40
2020-06-27 15:00:00 23 9 Sudoeste 23 Sur 0 -- -- 44
2020-06-27 14:00:00 22.5 7 Sudoeste 27 Sudoeste 0 -- -- 45
2020-06-27 13:00:00 21.8 11 Sudoeste 32 Sudoeste 0 -- -- 46
2020-06-27 12:00:00 21.9 12 Sudoeste 28 Sudoeste 0 -- -- 47
2020-06-27 11:00:00 20.8 7 Sudoeste 16 Sudoeste 0 -- -- 54
2020-06-27 10:00:00 17.5 6 Sudoeste 11 Sudoeste 0 -- -- 66
2020-06-27 09:00:00 10.7 0 Calma 3 Sudoeste 0 -- -- 92
2020-06-27 08:00:00 8.4 0 Calma -- -- 0 -- -- 94
2020-06-27 07:00:00 7.4 0 Calma -- -- 0 -- -- 94
2020-06-27 06:00:00 7.4 0 Calma -- -- 0 -- -- 93
2020-06-27 05:00:00 7.8 0 Calma 3 Nordeste 0 -- -- 93
2020-06-27 04:00:00 8.5 2 Nordeste 5 Norte 0 -- -- 92
2020-06-27 03:00:00 8.9 0 Calma 4 Sudoeste 0 -- -- 91
2020-06-27 02:00:00 10 0 Calma 3 Noroeste 0 -- -- 86
2020-06-27 01:00:00 10.8 0 Calma 4 Noroeste 0 -- -- 81
2020-06-27 00:00:00 11.6 0 Calma 5 Noroeste 0 -- -- 76
2020-06-26 23:00:00 12.8 0 Calma 3 Noroeste 0 -- -- 69
2020-06-26 22:00:00 15.2 0 Calma 10 Norte 0 -- -- 57
2020-06-26 21:00:00 18 4 Nordeste 18 Nordeste 0 -- -- 45
2020-06-26 20:00:00 20 7 Nordeste 22 Este 0 -- -- 63
2020-06-26 19:00:00 19.2 7 Nordeste 31 Nordeste 0 -- -- 66
2020-06-26 18:00:00 22.2 10 Nordeste 23 Nordeste 0 -- -- 59
2020-06-26 17:00:00 23.7 8 Nordeste 23 Nordeste 0 -- -- 56
2020-06-26 16:00:00 21.1 13 Nordeste 26 Nordeste 0 -- -- 62
2020-06-26 15:00:00 24 9 Nordeste 18 Nordeste 0 -- -- 58
2020-06-26 14:00:00 23.8 8 Nordeste 17 Nordeste 0 -- -- 59
2020-06-26 13:00:00 23.4 5 Nordeste 17 Nordeste 0 -- -- 61
2020-06-26 12:00:00 22.5 4 Nordeste 12 Nordeste 0 -- -- 64
2020-06-26 11:00:00 19.9 4 Nordeste 11 Nordeste 0 -- -- 72
2020-06-26 10:00:00 16.9 2 Este 7 Este 0 -- -- 85
2020-06-26 09:00:00 15.5 0 Calma -- -- 0 -- -- 91
2020-06-26 08:00:00 15 0 Calma -- -- 0 -- -- 93
2020-06-26 07:00:00 14.9 0 Calma 5 Este 0 -- -- 93
2020-06-26 06:00:00 14.8 0 Calma 5 Este 0 -- -- 93
2020-06-26 05:00:00 14.7 4 Nordeste 11 Nordeste 0 -- -- 94
2020-06-26 04:00:00 14.8 3 Nordeste 8 Este 0 -- -- 94
2020-06-26 03:00:00 15.1 0 Calma 10 Este 0 -- -- 94
2020-06-26 02:00:00 15.1 3 Nordeste 6 Nordeste 0 -- -- 94
2020-06-26 01:00:00 15 0 Calma 5 Oeste 0 -- -- 94
2020-06-26 00:00:00 14.5 0 Calma 5 Nordeste 0 -- -- 93
2020-06-25 23:00:00 15.5 4 Nordeste 12 Este 0 -- -- 92
2020-06-25 22:00:00 17.2 4 Nordeste 14 Este 0.1 -- -- 92
2020-06-25 21:00:00 18.1 2 Sudoeste 6 Sudoeste 0 -- -- 92
2020-06-25 20:00:00 18.7 3 Nordeste 12 Nordeste 0.4 -- -- 88
2020-06-25 19:00:00 20 0 Calma 15 Nordeste 0.7 -- -- 72
2020-06-25 18:00:00 23.2 5 Nordeste 13 Nordeste 0.1 -- -- 67
2020-06-25 17:00:00 21.8 2 Nordeste 13 Nordeste 0 -- -- 78
2020-06-25 16:00:00 20.8 2 Este 9 Este 0.9 -- -- 88
2020-06-25 15:00:00 19.9 3 Oeste 11 Oeste 0.4 -- -- 88
2020-06-25 14:00:00 20.7 9 Sudoeste 19 Sudoeste 0.5 -- -- 80
2020-06-25 13:00:00 23.3 2 Este 22 Sudoeste 0 -- -- 60
2020-06-25 12:00:00 22.9 0 Calma 13 Nordeste 0 -- -- 61
2020-06-25 11:00:00 20.1 4 Nordeste 15 Oeste 0 -- -- 71
2020-06-25 10:00:00 20.4 2 Este 15 Sudoeste 0 -- -- 70
2020-06-25 09:00:00 17.2 2 Nordeste 35 Oeste 0.3 -- -- 87
2020-06-25 08:00:00 16.5 4 Sudoeste 24 Sudoeste 0.1 -- -- 83
2020-06-25 07:00:00 17.4 3 Sudeste 31 Nordeste 0 -- -- 73
2020-06-25 06:00:00 15 5 Nordeste 34 Sudoeste 0 -- -- 88
2020-06-25 05:00:00 14.2 0 Calma 5 Nordeste 0 -- -- 87
2020-06-25 04:00:00 15.3 0 Calma 10 Este 0 -- -- 86
2020-06-25 03:00:00 17.2 0 Calma 15 Nordeste 0 -- -- 81
2020-06-25 02:00:00 17 2 Sur 11 Sudoeste 0 -- -- 87
2020-06-25 01:00:00 17.4 0 Calma 9 Nordeste 0 -- -- 83
2020-06-25 00:00:00 17.6 0 Calma 8 Sudoeste 0 -- -- 82
2020-06-24 23:00:00 18.7 0 Calma 6 Nordeste 0 -- -- 78
2020-06-24 22:00:00 20 0 Calma 19 Nordeste 0 -- -- 69
2020-06-24 21:00:00 20.8 2 Nordeste 9 Nordeste 0 -- -- 70
2020-06-24 20:00:00 22 0 Calma 5 Sudeste 0 -- -- 70
2020-06-24 19:00:00 22.5 0 Calma 9 Sudoeste 0 -- -- 66
2020-06-24 18:00:00 21 0 Calma 24 Sudoeste 0 -- -- 66
2020-06-24 17:00:00 20.2 14 Sudoeste 58 Sudoeste 0.6 -- -- 59
2020-06-24 16:00:00 30.6 8 Sudoeste 26 Sudoeste 0 -- -- 24
2020-06-24 15:00:00 33.3 3 Sudoeste 15 Sudoeste 0 -- -- 24
2020-06-24 14:00:00 31.6 6 Sudeste 17 Sudeste 0 -- -- 28
2020-06-24 13:00:00 29.2 5 Sudeste 14 Sudeste 0 -- -- 31
2020-06-24 12:00:00 27.5 3 Nordeste 10 Nordeste 0 -- -- 39
2020-06-24 11:00:00 24.5 2 Este 7 Este 0 -- -- 43
2020-06-24 10:00:00 20.7 2 Este 5 Este 0 -- -- 60
2020-06-24 09:00:00 14.8 0 Calma 6 Este 0 -- -- 86
2020-06-24 08:00:00 13.2 4 Sur 11 Sudoeste 0 -- -- 92
2020-06-24 07:00:00 11.5 0 Calma 7 Sudoeste 0 -- -- 92
2020-06-24 06:00:00 11.6 0 Calma 6 Este 0 -- -- 92
2020-06-24 05:00:00 12.5 0 Calma 6 Este 0 -- -- 90
2020-06-24 04:00:00 13.5 2 Nordeste 8 Nordeste 0 -- -- 88
2020-06-24 03:00:00 14.3 0 Calma 9 Sudoeste 0 -- -- 84
2020-06-24 02:00:00 15.1 0 Calma 8 Oeste 0 -- -- 79
2020-06-24 01:00:00 15.4 2 Sudoeste 9 Nordeste 0 -- -- 76
2020-06-24 00:00:00 16.9 0 Calma 4 Norte 0 -- -- 59
2020-06-23 23:00:00 18.5 0 Calma 5 Nordeste 0 -- -- 52
2020-06-23 22:00:00 20.4 0 Calma 10 Este 0 -- -- 44
2020-06-23 21:00:00 24.9 5 Este 15 Nordeste 0 -- -- 34
2020-06-23 20:00:00 28.1 6 Nordeste 21 Nordeste 0 -- -- 33
2020-06-23 19:00:00 29.7 8 Nordeste 26 Nordeste 0 -- -- 32
2020-06-23 18:00:00 32.5 4 Nordeste 23 Nordeste 0 -- -- 24
2020-06-23 17:00:00 33.3 4 Sudoeste 17 Noroeste 0 -- -- 19
2020-06-23 16:00:00 33 5 Oeste 24 Sudoeste 0 -- -- 20
2020-06-23 15:00:00 31.9 8 Sudoeste 17 Sudoeste 0 -- -- 22
2020-06-23 14:00:00 30.5 0 Calma 9 Este 0 -- -- 26
2020-06-23 13:00:00 28.6 0 Calma 9 Este 0 -- -- 29
2020-06-23 12:00:00 24.3 0 Calma 7 Sudoeste 0 -- -- 34
2020-06-23 11:00:00 19.3 0 Calma 6 Oeste 0 -- -- 56
2020-06-23 10:00:00 13.2 0 Calma 7 Sudoeste 0 -- -- 91
2020-06-23 09:00:00 10.8 0 Calma 5 Sudoeste 0 -- -- 95
2020-06-23 08:00:00 9.8 0 Calma 2 Norte 0 -- -- 95
2020-06-23 07:00:00 9.5 0 Calma 3 Noroeste 0 -- -- 95
2020-06-23 06:00:00 9.7 0 Calma 2 Noroeste 0 -- -- 95
2020-06-23 05:00:00 9.7 0 Calma 2 Nordeste 0 -- -- 93
2020-06-23 04:00:00 10.3 0 Calma 3 Norte 0 -- -- 93
2020-06-23 03:00:00 11.1 0 Calma 5 Nordeste 0 -- -- 92
2020-06-23 02:00:00 12.6 0 Calma 4 Nordeste 0 -- -- 92
2020-06-23 01:00:00 13.7 0 Calma 7 Norte 0 -- -- 90
2020-06-23 00:00:00 15.7 0 Calma 3 Nordeste 0 -- -- 90
2020-06-22 23:00:00 17.6 0 Calma 7 Nordeste 0 -- -- 86
2020-06-22 22:00:00 20.6 3 Nordeste 10 Este 0 -- -- 73
2020-06-22 21:00:00 23 2 Nordeste 21 Nordeste 0 -- -- 57
2020-06-22 20:00:00 25.2 6 Nordeste 24 Nordeste 0 -- -- 47
2020-06-22 19:00:00 27 5 Nordeste 22 Nordeste 0 -- -- 37
2020-06-22 18:00:00 28.5 4 Nordeste 20 Nordeste 0 -- -- 27
2020-06-22 17:00:00 29.8 4 Nordeste 19 Nordeste 0 -- -- 28
2020-06-22 16:00:00 29.1 6 Nordeste 17 Sudeste 0 -- -- 28
2020-06-22 15:00:00 27.2 2 Nordeste 21 Este 0 -- -- 29
2020-06-22 14:00:00 26.6 4 Nordeste 15 Nordeste 0 -- -- 32
2020-06-22 13:00:00 25.3 4 Nordeste 14 Este 0 -- -- 34
2020-06-22 12:00:00 22.9 4 Nordeste 14 Nordeste 0 -- -- 41
2020-06-22 11:00:00 21.1 3 Este 10 Este 0 -- -- 49
2020-06-22 10:00:00 18.8 2 Este 9 Este 0 -- -- 66
2020-06-22 09:00:00 14.8 0 Calma 6 Este 0 -- -- 85
2020-06-22 08:00:00 13.7 0 Calma -- -- 0 -- -- 92
2020-06-22 07:00:00 12.8 0 Calma 0 Calma 0 -- -- 92
2020-06-22 06:00:00 13.2 0 Calma 10 Nordeste 0 -- -- 90
2020-06-22 05:00:00 14.8 2 Nordeste 10 Nordeste 0 -- -- 85
2020-06-22 04:00:00 14.8 3 Nordeste 11 Nordeste 0 -- -- 86
2020-06-22 03:00:00 14.7 0 Calma 8 Nordeste 0 -- -- 87
2020-06-22 02:00:00 14.7 0 Calma 6 Sudeste 0 -- -- 86
2020-06-22 01:00:00 15.3 2 Este 13 Norte 0 -- -- 83
2020-06-22 00:00:00 15.3 0 Calma 9 Nordeste 0 -- -- 85
2020-06-21 23:00:00 15 4 Nordeste 22 Norte 0 -- -- 84
2020-06-21 22:00:00 15.6 6 Este 24 Este 0 -- -- 80
2020-06-21 21:00:00 16.9 10 Nordeste 30 Nordeste 0 -- -- 71
2020-06-21 20:00:00 19.9 2 Nordeste 27 Nordeste 0 -- -- 57
2020-06-21 19:00:00 20.9 8 Nordeste 30 Nordeste 0 -- -- 51
2020-06-21 18:00:00 22.1 9 Nordeste 32 Nordeste 0 -- -- 47
2020-06-21 17:00:00 24.3 10 Nordeste 34 Nordeste 0 -- -- 42
2020-06-21 16:00:00 25.9 7 Nordeste 19 Nordeste 0 -- -- 34
2020-06-21 15:00:00 26.4 5 Nordeste 19 Este 0 -- -- 37
2020-06-21 14:00:00 25.4 3 Este 16 Nordeste 0 -- -- 34
2020-06-21 13:00:00 24.4 5 Nordeste 17 Nordeste 0 -- -- 37
2020-06-21 12:00:00 22.1 4 Nordeste 10 Este 0 -- -- 43
2020-06-21 11:00:00 16.2 0 Calma 7 Sudeste 0 -- -- 72
2020-06-21 10:00:00 12.4 0 Calma 5 Nordeste 0 -- -- 94
2020-06-21 09:00:00 11.2 0 Calma 6 Sudoeste 0 -- -- 94
2020-06-21 08:00:00 10.4 2 Sudoeste 6 Sudoeste 0 -- -- 94
2020-06-21 07:00:00 10 0 Calma -- -- 0 -- -- 94
2020-06-21 06:00:00 9.8 0 Calma -- -- 0 -- -- 94
2020-06-21 05:00:00 9.2 0 Calma -- -- 0 -- -- 94
2020-06-21 04:00:00 9.6 0 Calma -- -- 0 -- -- 93
2020-06-21 03:00:00 10.5 0 Calma -- -- 0 -- -- 92
2020-06-21 02:00:00 10.9 0 Calma 5 Nordeste 0 -- -- 92
2020-06-21 01:00:00 11.7 0 Calma 3 Noroeste 0 -- -- 91
2020-06-21 00:00:00 12.8 0 Calma 8 Nordeste 0 -- -- 88
2020-06-20 23:00:00 14.3 2 Nordeste 12 Nordeste 0 -- -- 84
2020-06-20 22:00:00 16 6 Nordeste 23 Nordeste 0 -- -- 75
2020-06-20 21:00:00 17.9 11 Nordeste 31 Nordeste 0 -- -- 66
2020-06-20 20:00:00 20.5 11 Nordeste 26 Nordeste 0 -- -- 52
2020-06-20 19:00:00 24.1 8 Nordeste 30 Nordeste 0 -- -- 46
2020-06-20 18:00:00 25.2 10 Nordeste 25 Nordeste 0 -- -- 41
2020-06-20 17:00:00 27.9 4 Sudoeste 16 Oeste 0 -- -- 26
2020-06-20 16:00:00 26.7 5 Sudoeste 20 Sudoeste 0 -- -- 28
2020-06-20 15:00:00 25.9 4 Sudoeste 21 Sur 0 -- -- 29
2020-06-20 14:00:00 24.3 7 Sudoeste 17 Sudoeste 0 -- -- 32
2020-06-20 13:00:00 23.3 3 Sudoeste 13 Sudoeste 0 -- -- 35
2020-06-20 12:00:00 20.7 2 Este 10 Este 0 -- -- 43
2020-06-20 11:00:00 18 2 Este 8 Este 0 -- -- 54
2020-06-20 10:00:00 12.3 0 Calma -- -- 0 -- -- 76
2020-06-20 09:00:00 8 0 Calma 4 Sur 0 -- -- 95
2020-06-20 08:00:00 6.6 0 Calma 5 Sudoeste 0 -- -- 95
2020-06-20 07:00:00 6.5 0 Calma -- -- 0 -- -- 95
2020-06-20 06:00:00 6.3 0 Calma 3 Nordeste 0 -- -- 94
2020-06-20 05:00:00 6.3 0 Calma 0 Calma 0 -- -- 94
2020-06-20 04:00:00 7.1 0 Calma 2 Noroeste 0 -- -- 93
2020-06-20 03:00:00 7.8 0 Calma 3 Oeste 0 -- -- 93
2020-06-20 02:00:00 8.4 0 Calma 3 Noroeste 0 -- -- 92
2020-06-20 01:00:00 9.2 0 Calma 0 Calma 0 -- -- 92
2020-06-20 00:00:00 10.5 0 Calma 2 Sudoeste 0 -- -- 88
2020-06-19 23:00:00 11.7 0 Calma 12 Nordeste 0 -- -- 85
2020-06-19 22:00:00 13 4 Nordeste 20 Este 0 -- -- 79
2020-06-19 21:00:00 14.6 6 Nordeste 20 Nordeste 0 -- -- 75
2020-06-19 20:00:00 16.5 7 Nordeste 24 Nordeste 0 -- -- 65
2020-06-19 19:00:00 19.1 10 Nordeste 32 Nordeste 0 -- -- 55
2020-06-19 18:00:00 21.2 10 Nordeste 28 Nordeste 0 -- -- 47
2020-06-19 17:00:00 23.4 8 Nordeste 22 Nordeste 0 -- -- 42
2020-06-19 16:00:00 23.3 8 Nordeste 26 Nordeste 0 -- -- 39
2020-06-19 15:00:00 24 5 Nordeste 19 Nordeste 0 -- -- 38
2020-06-19 14:00:00 22.6 7 Nordeste 15 Norte 0 -- -- 39
2020-06-19 13:00:00 20.9 3 Oeste 13 Sudoeste 0 -- -- 42
2020-06-19 12:00:00 19.1 4 Este 14 Nordeste 0 -- -- 45
2020-06-19 11:00:00 16.6 4 Nordeste 12 Este 0 -- -- 57
2020-06-19 10:00:00 12.7 3 Sudoeste 9 Sudoeste 0 -- -- 79
2020-06-19 09:00:00 9.7 3 Sudoeste 7 Sudoeste 0 -- -- 89
2020-06-19 08:00:00 8.1 0 Calma 4 Sudoeste 0 -- -- 92
2020-06-19 07:00:00 7.5 0 Calma 3 Sudoeste 0 -- -- 92
2020-06-19 06:00:00 8.2 0 Calma 3 Este 0 -- -- 93
2020-06-19 05:00:00 8.2 0 Calma 3 Noroeste 0 -- -- 92
2020-06-19 04:00:00 9.6 0 Calma 3 Nordeste 0 -- -- 91
2020-06-19 03:00:00 11.4 0 Calma 8 Nordeste 0 -- -- 85
2020-06-19 02:00:00 11.9 2 Nordeste 7 Nordeste 0 -- -- 82
2020-06-19 01:00:00 12.1 0 Calma 9 Nordeste 0 -- -- 82
2020-06-19 00:00:00 12.1 3 Este 8 Este 0 -- -- 80
2020-06-18 23:00:00 11.9 2 Nordeste 15 Nordeste 0 -- -- 81
2020-06-18 22:00:00 12.9 5 Nordeste 17 Este 0 -- -- 76
2020-06-18 21:00:00 13.6 6 Nordeste 18 Nordeste 0 -- -- 69
2020-06-18 20:00:00 16.3 3 Nordeste 18 Nordeste 0 -- -- 56
2020-06-18 19:00:00 17.7 6 Nordeste 24 Nordeste 0 -- -- 52
2020-06-18 18:00:00 18.5 9 Nordeste 30 Nordeste 0 -- -- 50
2020-06-18 17:00:00 19.2 7 Nordeste 27 Nordeste 0 -- -- 47
2020-06-18 16:00:00 18.7 10 Nordeste 26 Nordeste 0 -- -- 48
2020-06-18 15:00:00 19.2 0 Calma 12 Sudeste 0 -- -- 39
2020-06-18 14:00:00 18.4 5 Nordeste 16 Este 0 -- -- 45
2020-06-18 13:00:00 17.1 3 Nordeste 12 Nordeste 0 -- -- 53
2020-06-18 12:00:00 15.2 4 Nordeste 12 Este 0 -- -- 64
2020-06-18 11:00:00 14.2 4 Nordeste 11 Norte 0 -- -- 70
2020-06-18 10:00:00 13.1 4 Este 12 Nordeste 0 -- -- 76
2020-06-18 09:00:00 11.5 3 Nordeste 6 Nordeste 0 -- -- 90
2020-06-18 08:00:00 10.3 0 Calma -- -- 0 -- -- 94
2020-06-18 07:00:00 9.8 0 Calma -- -- 0 -- -- 94
2020-06-18 06:00:00 10 0 Calma -- -- 0 -- -- 94
2020-06-18 05:00:00 10.1 0 Calma -- -- 0.1 -- -- 93
2020-06-18 04:00:00 10 0 Calma 7 Este 0.1 -- -- 93
2020-06-18 03:00:00 10.3 0 Calma 9 Nordeste 0.4 -- -- 92
2020-06-18 02:00:00 10.7 4 Nordeste 8 Este 0.5 -- -- 91
2020-06-18 01:00:00 11.2 0 Calma 9 Nordeste 0 -- -- 84
2020-06-18 00:00:00 11.2 3 Este 10 Este 0 -- -- 83
2020-06-17 23:00:00 11.3 4 Este 16 Nordeste 0 -- -- 82
2020-06-17 22:00:00 11.4 6 Nordeste 18 Nordeste 0 -- -- 80
2020-06-17 21:00:00 12.4 6 Nordeste 21 Nordeste 0 -- -- 77
2020-06-17 20:00:00 13.8 8 Nordeste 28 Norte 0 -- -- 68
2020-06-17 19:00:00 14.8 10 Nordeste 26 Nordeste 0 -- -- 71
2020-06-17 18:00:00 14.6 7 Nordeste 26 Nordeste 0.3 -- -- 81
2020-06-17 17:00:00 15.2 4 Nordeste 26 Nordeste 0 -- -- 61
2020-06-17 16:00:00 19.4 9 Nordeste 23 Este 0 -- -- 48
2020-06-17 15:00:00 18.7 6 Nordeste 17 Este 0 -- -- 48
2020-06-17 14:00:00 16.5 0 Calma 17 Nordeste 0 -- -- 47
2020-06-17 13:00:00 16.4 4 Nordeste 21 Nordeste 0 -- -- 51
2020-06-17 12:00:00 15 6 Nordeste 18 Nordeste 0 -- -- 61
2020-06-17 11:00:00 13.5 0 Calma 6 Oeste 0 -- -- 66
2020-06-17 10:00:00 12.3 0 Calma 6 Nordeste 0 -- -- 75
2020-06-17 09:00:00 11 0 Calma 6 Este 0 -- -- 87
2020-06-17 08:00:00 10.3 0 Calma 2 Nordeste 0 -- -- 93
2020-06-17 07:00:00 9.4 0 Calma 2 Norte 0 -- -- 93
2020-06-17 06:00:00 9.3 0 Calma 3 Norte 0 -- -- 93
2020-06-17 05:00:00 9.3 0 Calma 4 Noroeste 0 -- -- 92
2020-06-17 04:00:00 10.4 0 Calma 5 Nordeste 0 -- -- 89
2020-06-17 03:00:00 10.8 0 Calma 5 Nordeste 0 -- -- 89
2020-06-17 02:00:00 11.1 0 Calma 6 Nordeste 0 -- -- 88
2020-06-17 01:00:00 11.2 4 Nordeste 9 Nordeste 0 -- -- 85
2020-06-17 00:00:00 11.4 2 Nordeste 13 Nordeste 0 -- -- 86
2020-06-16 23:00:00 11.6 0 Calma 7 Nordeste 0 -- -- 85
2020-06-16 22:00:00 11.5 2 Nordeste 14 Norte 0 -- -- 85
2020-06-16 21:00:00 11.9 6 Nordeste 18 Nordeste 0 -- -- 84
2020-06-16 20:00:00 12.5 6 Nordeste 21 Nordeste 0 -- -- 83
2020-06-16 19:00:00 13.3 9 Nordeste 27 Norte 0 -- -- 79
2020-06-16 18:00:00 14.3 11 Nordeste 27 Nordeste 1.2 -- -- 87
2020-06-16 17:00:00 13.6 7 Nordeste 21 Nordeste 1.8 -- -- 86
2020-06-16 16:00:00 14.5 9 Este 31 Nordeste 0 -- -- 70
2020-06-16 15:00:00 20.1 16 Sudoeste 34 Sudoeste 0 -- -- 40
2020-06-16 14:00:00 17.8 16 Sudoeste 33 Sudoeste 0 -- -- 45
2020-06-16 13:00:00 18 10 Sudoeste 22 Sudoeste 0 -- -- 46
2020-06-16 12:00:00 16.5 10 Sudoeste 18 Sudoeste 0 -- -- 54
2020-06-16 11:00:00 14.6 6 Sudoeste 10 Sudoeste 0 -- -- 67
2020-06-16 10:00:00 15 3 Sur 12 Sudoeste 0 -- -- 70
2020-06-16 09:00:00 11.6 0 Calma 6 Sudoeste 0 -- -- 85
2020-06-16 08:00:00 10 0 Calma 4 Noroeste 0 -- -- 93
2020-06-16 07:00:00 9.4 0 Calma 4 Este 0 -- -- 94
2020-06-16 06:00:00 9.2 0 Calma 0 Calma 0 -- -- 94
2020-06-16 05:00:00 8.5 0 Calma 3 Noroeste 0 -- -- 93
2020-06-16 04:00:00 9.2 0 Calma 4 Nordeste 0 -- -- 92
2020-06-16 03:00:00 8.8 0 Calma 3 Noroeste 0 -- -- 93
2020-06-16 02:00:00 9.8 0 Calma 2 Norte 0 -- -- 92
2020-06-16 01:00:00 11.2 0 Calma 8 Este 0 -- -- 87
2020-06-16 00:00:00 11.3 3 Este 9 Sudeste 0 -- -- 86
2020-06-15 23:00:00 12 4 Este 13 Este 0 -- -- 83
2020-06-15 22:00:00 12.3 4 Este 13 Este 0 -- -- 79
2020-06-15 21:00:00 13.3 6 Este 19 Nordeste 0 -- -- 75
2020-06-15 20:00:00 15.1 7 Nordeste 22 Nordeste 0 -- -- 67
2020-06-15 19:00:00 16.3 7 Nordeste 27 Nordeste 0 -- -- 61
2020-06-15 18:00:00 17.2 12 Nordeste 28 Nordeste 0 -- -- 53
2020-06-15 17:00:00 22.3 3 Sudeste 10 Sur 0 -- -- 34
2020-06-15 16:00:00 22.2 3 Nordeste 15 Nordeste 0 -- -- 37
2020-06-15 15:00:00 20.6 5 Este 12 Este 0 -- -- 41
2020-06-15 14:00:00 19.6 3 Sudeste 10 Este 0 -- -- 43
2020-06-15 13:00:00 17.8 3 Nordeste 19 Nordeste 0 -- -- 48
2020-06-15 12:00:00 17.5 3 Sudoeste 11 Sudoeste 0 -- -- 47
2020-06-15 11:00:00 16.2 0 Calma 14 Sudoeste 0 -- -- 53
2020-06-15 10:00:00 14.9 4 Sudoeste 9 Sur 0 -- -- 66
2020-06-15 09:00:00 12.4 3 Nordeste 8 Este 0 -- -- 84
2020-06-15 08:00:00 10.3 0 Calma -- -- 0 -- -- 92
2020-06-15 07:00:00 9.3 0 Calma -- -- 0 -- -- 93
2020-06-15 06:00:00 9.4 0 Calma -- -- 0 -- -- 92
2020-06-15 05:00:00 10.1 0 Calma -- -- 0 -- -- 92
2020-06-15 04:00:00 11.2 0 Calma -- -- 0 -- -- 89
2020-06-15 03:00:00 11.2 0 Calma -- -- 0 -- -- 88
2020-06-15 02:00:00 11.6 0 Calma -- -- 0 -- -- 87
2020-06-15 01:00:00 11.7 0 Calma -- -- 0 -- -- 86
2020-06-15 00:00:00 11.8 0 Calma -- -- 0 -- -- 83
2020-06-14 23:00:00 12.2 0 Calma 17 Este 0 -- -- 79
2020-06-14 22:00:00 12.6 6 Nordeste 19 Nordeste 0 -- -- 73
2020-06-14 21:00:00 13.8 8 Nordeste 28 Norte 0 -- -- 66
2020-06-14 20:00:00 15.6 10 Nordeste 24 Nordeste 0 -- -- 61
2020-06-14 19:00:00 16.5 8 Nordeste 22 Sudoeste 0 -- -- 54
2020-06-14 18:00:00 18.9 12 Sudoeste 28 Sudoeste 0 -- -- 34
2020-06-14 17:00:00 19.3 14 Sudoeste 31 Sudoeste 0 -- -- 34
2020-06-14 16:00:00 18.1 13 Sudoeste 29 Sudoeste 0 -- -- 37
2020-06-14 15:00:00 18.1 12 Sudoeste 30 Sudoeste 0 -- -- 39
2020-06-14 14:00:00 17.8 15 Sudoeste 30 Sudoeste 0 -- -- 38
2020-06-14 13:00:00 16.6 15 Sudoeste 27 Sudoeste 0 -- -- 42
2020-06-14 12:00:00 16.2 10 Oeste 27 Sudoeste 0 -- -- 46
2020-06-14 11:00:00 14.2 10 Sudoeste 18 Sudoeste 0 -- -- 56
2020-06-14 10:00:00 12.8 5 Sudoeste 10 Sudoeste 0 -- -- 68
2020-06-14 09:00:00 10.2 3 Sudoeste 7 Sudoeste 0 -- -- 83
2020-06-14 08:00:00 8.9 3 Sudoeste 5 Sudoeste 0 -- -- 90
2020-06-14 07:00:00 8.3 0 Calma -- -- 0 -- -- 93
2020-06-14 06:00:00 8.3 0 Calma -- -- 0 -- -- 93
2020-06-14 05:00:00 7.4 0 Calma -- -- 0 -- -- 93
2020-06-14 04:00:00 7.6 0 Calma -- -- 0 -- -- 93
2020-06-14 03:00:00 6.8 0 Calma 4 Norte 0 -- -- 92
2020-06-14 02:00:00 7.1 0 Calma 5 Norte 0 -- -- 92
2020-06-14 01:00:00 8 0 Calma 10 Nordeste 0 -- -- 90
2020-06-14 00:00:00 10.1 6 Nordeste 13 Nordeste 0 -- -- 86
2020-06-13 23:00:00 10.7 0 Calma 5 Noroeste 0 -- -- 81
2020-06-13 22:00:00 13.6 0 Calma 9 Oeste 0 -- -- 67
2020-06-13 21:00:00 15.7 5 Sudoeste 24 Sudoeste 0 -- -- 55
2020-06-13 20:00:00 16.7 7 Sudoeste 17 Sudoeste 0 -- -- 48
2020-06-13 19:00:00 16.7 12 Sudoeste 34 Sudoeste 0 -- -- 46
2020-06-13 18:00:00 18.3 12 Sudoeste 28 Sudoeste 0 -- -- 43
2020-06-13 17:00:00 17.1 14 Sudoeste 33 Sudoeste 0 -- -- 43
2020-06-13 16:00:00 17.9 18 Sudoeste 38 Sudoeste 0 -- -- 40
2020-06-13 15:00:00 18 17 Sudoeste 35 Sudoeste 0 -- -- 42
2020-06-13 14:00:00 18 15 Sudoeste 35 Oeste 0 -- -- 45
2020-06-13 13:00:00 17.3 14 Sudoeste 31 Sudoeste 0 -- -- 47
2020-06-13 12:00:00 15.6 17 Sudoeste 32 Oeste 0 -- -- 49
2020-06-13 11:00:00 14.3 15 Sudoeste 30 Sudoeste 0 -- -- 57
2020-06-13 10:00:00 12.5 8 Sudoeste 23 Sudoeste 0 -- -- 68
2020-06-13 09:00:00 11.2 9 Sudoeste 22 Sudoeste 0 -- -- 71
2020-06-13 08:00:00 10.5 10 Sudoeste 19 Sudoeste 0 -- -- 75
2020-06-13 07:00:00 9.7 10 Sudoeste 17 Sudoeste 0 -- -- 78
2020-06-13 06:00:00 10.3 10 Sudoeste 24 Sudoeste 0 -- -- 74
2020-06-13 05:00:00 10.7 10 Sudoeste 19 Sudoeste 0 -- -- 74
2020-06-13 04:00:00 11 8 Sudoeste 19 Sudoeste 0 -- -- 71
2020-06-13 03:00:00 10.9 8 Sudoeste 18 Sudoeste 0 -- -- 76
2020-06-13 02:00:00 10.5 6 Sudoeste 17 Sudoeste 0 -- -- 79
2020-06-13 01:00:00 10.3 5 Sudoeste 16 Sudoeste 0 -- -- 79
2020-06-13 00:00:00 10.7 9 Sudoeste 20 Sudoeste 0 -- -- 79
2020-06-12 23:00:00 11 6 Sudoeste 13 Sudoeste 0 -- -- 77
2020-06-12 22:00:00 12.2 4 Sudoeste 20 Sudoeste 0 -- -- 65
2020-06-12 21:00:00 13.8 12 Sudoeste 24 Sudoeste 0 -- -- 60
2020-06-12 20:00:00 13.9 13 Sudoeste 27 Sudoeste 0 -- -- 57
2020-06-12 19:00:00 16 8 Sudoeste 23 Sudoeste 0 -- -- 61
2020-06-12 18:00:00 11.6 10 Sudoeste 31 Sudoeste 0.6 -- -- 78
2020-06-12 17:00:00 13.6 13 Sudoeste 30 Sudoeste 0 -- -- 60
2020-06-12 16:00:00 12.3 15 Sudoeste 39 Sudoeste 0 -- -- 66
2020-06-12 15:00:00 14 18 Sudoeste 37 Sudoeste 0 -- -- 45
2020-06-12 14:00:00 16.1 18 Sudoeste 37 Sudoeste 0 -- -- 38
2020-06-12 13:00:00 14.2 18 Sudoeste 39 Sudoeste 0 -- -- 40
2020-06-12 12:00:00 15.2 21 Sudoeste 43 Sudoeste 0 -- -- 40
2020-06-12 11:00:00 14 23 Sudoeste 42 Sudoeste 0 -- -- 45
2020-06-12 10:00:00 12.3 21 Sudoeste 41 Sudoeste 0 -- -- 55
2020-06-12 09:00:00 10.9 21 Sudoeste 43 Sudoeste 0 -- -- 62
2020-06-12 08:00:00 10 18 Sudoeste 34 Sudoeste 0 -- -- 66
2020-06-12 07:00:00 9.6 16 Sudoeste 35 Sudoeste 0 -- -- 69
2020-06-12 06:00:00 9.3 22 Sudoeste 41 Sudoeste 0 -- -- 67
2020-06-12 05:00:00 9.3 12 Sudoeste 28 Sudoeste 0 -- -- 65
2020-06-12 04:00:00 9.3 11 Sudoeste 29 Sudoeste 0 -- -- 64
2020-06-12 03:00:00 9.1 12 Sudoeste 40 Sur 0 -- -- 66
2020-06-12 02:00:00 9.2 10 Sudoeste 23 Sudoeste 0 -- -- 66
2020-06-12 01:00:00 8.4 13 Sudoeste 33 Sudoeste 0 -- -- 71
2020-06-12 00:00:00 5.2 0 Calma 13 Oeste 0 -- -- 92